sensor_id;sensor_type;location;lat;lon;timestamp;temperature;humidity
5930;DHT22;2990;48.746;9.236;2023-04-24T00:00:01;9.90;1.00
5930;DHT22;2990;48.746;9.236;2023-04-24T00:02:30;9.90;1.00
5930;DHT22;2990;48.746;9.236;2023-04-24T00:04:57;9.70;1.00
5930;DHT22;2990;48.746;9.236;2023-04-24T00:07:22;9.90;1.00
5930;DHT22;2990;48.746;9.236;2023-04-24T00:09:48;9.90;1.00
5930;DHT22;2990;48.746;9.236;2023-04-24T00:12:13;9.90;1.00
5930;DHT22;2990;48.746;9.236;2023-04-24T00:14:39;9.80;1.00
5930;DHT22;2990;48.746;9.236;2023-04-24T00:17:04;9.80;1.00
5930;DHT22;2990;48.746;9.236;2023-04-24T00:19:30;9.80;1.00
5930;DHT22;2990;48.746;9.236;2023-04-24T00:21:56;9.80;1.00
5930;DHT22;2990;48.746;9.236;2023-04-24T00:24:21;9.70;1.00
5930;DHT22;2990;48.746;9.236;2023-04-24T00:26:47;9.80;1.00
5930;DHT22;2990;48.746;9.236;2023-04-24T00:29:12;9.80;1.00
5930;DHT22;2990;48.746;9.236;2023-04-24T00:31:38;9.80;1.00
5930;DHT22;2990;48.746;9.236;2023-04-24T00:34:04;10.00;1.00
5930;DHT22;2990;48.746;9.236;2023-04-24T00:36:30;10.10;1.00
5930;DHT22;2990;48.746;9.236;2023-04-24T00:38:56;10.00;1.00
5930;DHT22;2990;48.746;9.236;2023-04-24T00:41:23;9.90;99.90
5930;DHT22;2990;48.746;9.236;2023-04-24T00:43:49;9.90;99.90
5930;DHT22;2990;48.746;9.236;2023-04-24T00:46:16;9.90;99.90
5930;DHT22;2990;48.746;9.236;2023-04-24T00:48:41;9.90;99.90
5930;DHT22;2990;48.746;9.236;2023-04-24T00:51:08;9.90;99.90
5930;DHT22;2990;48.746;9.236;2023-04-24T00:53:33;10.00;99.90
5930;DHT22;2990;48.746;9.236;2023-04-24T00:55:59;10.00;99.90
5930;DHT22;2990;48.746;9.236;2023-04-24T00:58:26;10.00;99.90
5930;DHT22;2990;48.746;9.236;2023-04-24T01:00:52;10.00;99.90
5930;DHT22;2990;48.746;9.236;2023-04-24T01:03:24;10.00;99.50
5930;DHT22;2990;48.746;9.236;2023-04-24T01:05:52;10.00;56.10
5930;DHT22;2990;48.746;9.236;2023-04-24T01:08:19;10.00;99.90
5930;DHT22;2990;48.746;9.236;2023-04-24T01:10:46;10.00;76.60
5930;DHT22;2990;48.746;9.236;2023-04-24T01:13:13;10.00;82.70
5930;DHT22;2990;48.746;9.236;2023-04-24T01:15:39;10.00;99.90
5930;DHT22;2990;48.746;9.236;2023-04-24T01:18:04;10.00;91.10
5930;DHT22;2990;48.746;9.236;2023-04-24T01:20:30;10.10;98.80
5930;DHT22;2990;48.746;9.236;2023-04-24T01:22:57;10.00;1.00
5930;DHT22;2990;48.746;9.236;2023-04-24T01:25:23;10.10;18.70
5930;DHT22;2990;48.746;9.236;2023-04-24T01:27:50;10.10;55.60
5930;DHT22;2990;48.746;9.236;2023-04-24T01:30:15;10.10;35.40
5930;DHT22;2990;48.746;9.236;2023-04-24T01:32:41;10.10;99.90
5930;DHT22;2990;48.746;9.236;2023-04-24T01:35:10;10.10;99.90
5930;DHT22;2990;48.746;9.236;2023-04-24T01:37:35;10.10;99.90
5930;DHT22;2990;48.746;9.236;2023-04-24T01:40:03;10.00;99.90
5930;DHT22;2990;48.746;9.236;2023-04-24T01:42:29;10.00;1.00
5930;DHT22;2990;48.746;9.236;2023-04-24T01:44:55;10.00;1.00
5930;DHT22;2990;48.746;9.236;2023-04-24T01:47:22;9.90;1.00
5930;DHT22;2990;48.746;9.236;2023-04-24T01:49:48;9.90;1.00
5930;DHT22;2990;48.746;9.236;2023-04-24T01:52:14;9.90;1.00
5930;DHT22;2990;48.746;9.236;2023-04-24T01:54:40;9.90;1.00
5930;DHT22;2990;48.746;9.236;2023-04-24T01:57:06;9.90;1.00
5930;DHT22;2990;48.746;9.236;2023-04-24T01:59:33;9.90;1.00
5930;DHT22;2990;48.746;9.236;2023-04-24T02:01:59;9.90;1.00
5930;DHT22;2990;48.746;9.236;2023-04-24T02:04:25;9.80;1.00
5930;DHT22;2990;48.746;9.236;2023-04-24T02:06:51;9.80;1.00
5930;DHT22;2990;48.746;9.236;2023-04-24T02:09:16;9.80;1.00
5930;DHT22;2990;48.746;9.236;2023-04-24T02:11:42;9.90;1.00
5930;DHT22;2990;48.746;9.236;2023-04-24T02:14:07;9.90;1.00
5930;DHT22;2990;48.746;9.236;2023-04-24T02:16:33;9.80;1.00
5930;DHT22;2990;48.746;9.236;2023-04-24T02:18:59;9.80;1.00
5930;DHT22;2990;48.746;9.236;2023-04-24T02:21:24;9.80;1.00
5930;DHT22;2990;48.746;9.236;2023-04-24T02:23:50;9.80;1.00
5930;DHT22;2990;48.746;9.236;2023-04-24T02:26:16;9.80;1.00
5930;DHT22;2990;48.746;9.236;2023-04-24T02:28:41;9.80;1.00
5930;DHT22;2990;48.746;9.236;2023-04-24T02:31:07;9.80;1.00
5930;DHT22;2990;48.746;9.236;2023-04-24T02:33:32;9.70;1.00
5930;DHT22;2990;48.746;9.236;2023-04-24T02:35:58;9.70;1.00
5930;DHT22;2990;48.746;9.236;2023-04-24T02:38:23;9.70;1.00
5930;DHT22;2990;48.746;9.236;2023-04-24T02:40:49;9.70;1.00
5930;DHT22;2990;48.746;9.236;2023-04-24T02:43:15;9.70;1.00
5930;DHT22;2990;48.746;9.236;2023-04-24T02:45:40;9.80;1.00
5930;DHT22;2990;48.746;9.236;2023-04-24T02:48:06;9.80;1.00
5930;DHT22;2990;48.746;9.236;2023-04-24T02:50:31;9.80;1.00
5930;DHT22;2990;48.746;9.236;2023-04-24T02:52:57;9.80;1.00
5930;DHT22;2990;48.746;9.236;2023-04-24T02:55:23;9.80;1.00
5930;DHT22;2990;48.746;9.236;2023-04-24T02:57:48;9.70;1.00
5930;DHT22;2990;48.746;9.236;2023-04-24T03:00:14;9.70;1.00
5930;DHT22;2990;48.746;9.236;2023-04-24T03:02:39;9.70;1.00
5930;DHT22;2990;48.746;9.236;2023-04-24T03:05:05;9.60;1.00
5930;DHT22;2990;48.746;9.236;2023-04-24T03:07:31;9.60;1.00
5930;DHT22;2990;48.746;9.236;2023-04-24T03:09:57;9.60;1.00
5930;DHT22;2990;48.746;9.236;2023-04-24T03:12:23;9.50;1.00
5930;DHT22;2990;48.746;9.236;2023-04-24T03:14:49;9.60;1.00
5930;DHT22;2990;48.746;9.236;2023-04-24T03:17:15;9.50;1.00
5930;DHT22;2990;48.746;9.236;2023-04-24T03:19:40;9.40;1.00
5930;DHT22;2990;48.746;9.236;2023-04-24T03:22:06;9.50;1.00
5930;DHT22;2990;48.746;9.236;2023-04-24T03:24:32;9.40;2.40
5930;DHT22;2990;48.746;9.236;2023-04-24T03:26:57;9.40;10.40
5930;DHT22;2990;48.746;9.236;2023-04-24T03:29:23;9.30;15.90
5930;DHT22;2990;48.746;9.236;2023-04-24T03:31:48;9.40;28.90
5930;DHT22;2990;48.746;9.236;2023-04-24T03:34:14;9.30;40.00
5930;DHT22;2990;48.746;9.236;2023-04-24T03:36:39;9.30;40.70
5930;DHT22;2990;48.746;9.236;2023-04-24T03:39:05;9.30;43.90
5930;DHT22;2990;48.746;9.236;2023-04-24T03:41:30;9.30;46.00
5930;DHT22;2990;48.746;9.236;2023-04-24T03:43:56;9.30;36.20
5930;DHT22;2990;48.746;9.236;2023-04-24T03:46:22;9.30;51.20
5930;DHT22;2990;48.746;9.236;2023-04-24T03:48:47;9.30;59.90
5930;DHT22;2990;48.746;9.236;2023-04-24T03:51:13;9.30;50.70
5930;DHT22;2990;48.746;9.236;2023-04-24T03:53:38;9.20;55.60
5930;DHT22;2990;48.746;9.236;2023-04-24T03:56:04;9.30;37.30
5930;DHT22;2990;48.746;9.236;2023-04-24T03:58:30;9.30;29.50
5930;DHT22;2990;48.746;9.236;2023-04-24T04:00:55;9.20;31.00
5930;DHT22;2990;48.746;9.236;2023-04-24T04:03:23;9.10;44.30
5930;DHT22;2990;48.746;9.236;2023-04-24T04:05:49;9.60;72.30
5930;DHT22;2990;48.746;9.236;2023-04-24T04:08:14;9.10;72.60
5930;DHT22;2990;48.746;9.236;2023-04-24T04:10:40;9.10;81.00
5930;DHT22;2990;48.746;9.236;2023-04-24T04:13:05;9.10;93.00
5930;DHT22;2990;48.746;9.236;2023-04-24T04:15:31;9.10;99.90
5930;DHT22;2990;48.746;9.236;2023-04-24T04:17:57;9.10;98.40
5930;DHT22;2990;48.746;9.236;2023-04-24T04:20:23;9.10;99.90
5930;DHT22;2990;48.746;9.236;2023-04-24T04:22:48;9.20;97.30
5930;DHT22;2990;48.746;9.236;2023-04-24T04:25:14;9.20;89.10
5930;DHT22;2990;48.746;9.236;2023-04-24T04:27:39;9.20;71.90
5930;DHT22;2990;48.746;9.236;2023-04-24T04:30:07;9.30;64.10
5930;DHT22;2990;48.746;9.236;2023-04-24T04:32:35;9.30;47.10
5930;DHT22;2990;48.746;9.236;2023-04-24T04:35:01;9.20;62.10
5930;DHT22;2990;48.746;9.236;2023-04-24T04:37:30;9.20;98.00
5930;DHT22;2990;48.746;9.236;2023-04-24T04:39:57;9.10;99.90
5930;DHT22;2990;48.746;9.236;2023-04-24T04:42:24;9.10;99.90
5930;DHT22;2990;48.746;9.236;2023-04-24T04:44:49;9.00;99.90
5930;DHT22;2990;48.746;9.236;2023-04-24T04:47:16;8.90;99.90
5930;DHT22;2990;48.746;9.236;2023-04-24T04:49:42;8.80;99.90
5930;DHT22;2990;48.746;9.236;2023-04-24T04:52:08;8.70;99.90
5930;DHT22;2990;48.746;9.236;2023-04-24T04:54:34;8.60;99.90
5930;DHT22;2990;48.746;9.236;2023-04-24T04:57:00;8.50;99.90
5930;DHT22;2990;48.746;9.236;2023-04-24T04:59:26;8.50;99.90
5930;DHT22;2990;48.746;9.236;2023-04-24T05:01:52;8.40;99.90
5930;DHT22;2990;48.746;9.236;2023-04-24T05:04:17;8.40;99.90
5930;DHT22;2990;48.746;9.236;2023-04-24T05:06:43;8.30;99.90
5930;DHT22;2990;48.746;9.236;2023-04-24T05:09:09;8.20;99.90
5930;DHT22;2990;48.746;9.236;2023-04-24T05:11:35;8.20;99.90
5930;DHT22;2990;48.746;9.236;2023-04-24T05:14:00;8.10;99.90
5930;DHT22;2990;48.746;9.236;2023-04-24T05:16:26;8.10;99.90
5930;DHT22;2990;48.746;9.236;2023-04-24T05:18:52;8.10;99.90
5930;DHT22;2990;48.746;9.236;2023-04-24T05:21:17;8.00;99.90
5930;DHT22;2990;48.746;9.236;2023-04-24T05:23:43;8.00;99.90
5930;DHT22;2990;48.746;9.236;2023-04-24T05:26:08;8.00;99.90
5930;DHT22;2990;48.746;9.236;2023-04-24T05:28:34;8.00;99.90
5930;DHT22;2990;48.746;9.236;2023-04-24T05:31:02;7.90;99.90
5930;DHT22;2990;48.746;9.236;2023-04-24T05:33:27;8.00;99.90
5930;DHT22;2990;48.746;9.236;2023-04-24T05:35:53;8.00;99.90
5930;DHT22;2990;48.746;9.236;2023-04-24T05:38:19;8.10;99.90
5930;DHT22;2990;48.746;9.236;2023-04-24T05:40:45;8.10;99.90
5930;DHT22;2990;48.746;9.236;2023-04-24T05:43:11;8.10;99.90
5930;DHT22;2990;48.746;9.236;2023-04-24T05:45:37;8.20;99.90
5930;DHT22;2990;48.746;9.236;2023-04-24T05:48:04;8.30;99.90
5930;DHT22;2990;48.746;9.236;2023-04-24T05:50:30;8.30;99.90
5930;DHT22;2990;48.746;9.236;2023-04-24T05:52:56;8.30;99.80
5930;DHT22;2990;48.746;9.236;2023-04-24T05:55:27;8.40;88.20
5930;DHT22;2990;48.746;9.236;2023-04-24T05:57:52;8.40;68.40
5930;DHT22;2990;48.746;9.236;2023-04-24T06:00:18;8.50;49.40
5930;DHT22;2990;48.746;9.236;2023-04-24T06:02:45;8.50;31.70
5930;DHT22;2990;48.746;9.236;2023-04-24T06:05:11;8.50;23.20
5930;DHT22;2990;48.746;9.236;2023-04-24T06:07:37;8.50;9.20
5930;DHT22;2990;48.746;9.236;2023-04-24T06:10:02;8.60;6.90
5930;DHT22;2990;48.746;9.236;2023-04-24T06:12:28;8.50;8.50
5930;DHT22;2990;48.746;9.236;2023-04-24T06:14:54;8.60;5.20
5930;DHT22;2990;48.746;9.236;2023-04-24T06:17:21;8.70;1.00
5930;DHT22;2990;48.746;9.236;2023-04-24T06:19:46;8.60;9.70
5930;DHT22;2990;48.746;9.236;2023-04-24T06:22:12;8.60;19.70
5930;DHT22;2990;48.746;9.236;2023-04-24T06:24:39;8.80;11.80
5930;DHT22;2990;48.746;9.236;2023-04-24T06:27:04;8.80;1.00
5930;DHT22;2990;48.746;9.236;2023-04-24T06:29:30;9.10;1.00
5930;DHT22;2990;48.746;9.236;2023-04-24T06:31:56;9.20;1.00
5930;DHT22;2990;48.746;9.236;2023-04-24T06:34:21;9.50;1.00
5930;DHT22;2990;48.746;9.236;2023-04-24T06:36:47;9.60;1.00
5930;DHT22;2990;48.746;9.236;2023-04-24T06:39:13;9.70;1.00
5930;DHT22;2990;48.746;9.236;2023-04-24T06:41:38;9.80;99.90
5930;DHT22;2990;48.746;9.236;2023-04-24T06:44:05;9.90;99.90
5930;DHT22;2990;48.746;9.236;2023-04-24T06:46:30;9.80;71.50
5930;DHT22;2990;48.746;9.236;2023-04-24T06:48:56;10.00;1.00
5930;DHT22;2990;48.746;9.236;2023-04-24T06:51:23;10.10;1.00
5930;DHT22;2990;48.746;9.236;2023-04-24T06:53:49;10.20;1.00
5930;DHT22;2990;48.746;9.236;2023-04-24T06:56:15;10.20;99.90
5930;DHT22;2990;48.746;9.236;2023-04-24T06:58:41;10.30;1.00
5930;DHT22;2990;48.746;9.236;2023-04-24T07:01:07;10.40;1.00
5930;DHT22;2990;48.746;9.236;2023-04-24T07:03:32;10.40;99.90
5930;DHT22;2990;48.746;9.236;2023-04-24T07:05:58;10.40;1.00
5930;DHT22;2990;48.746;9.236;2023-04-24T07:08:23;10.50;1.00
5930;DHT22;2990;48.746;9.236;2023-04-24T07:10:49;10.70;99.90
5930;DHT22;2990;48.746;9.236;2023-04-24T07:13:16;10.80;1.00
5930;DHT22;2990;48.746;9.236;2023-04-24T07:15:42;11.00;99.90
5930;DHT22;2990;48.746;9.236;2023-04-24T07:18:08;10.90;1.00
5930;DHT22;2990;48.746;9.236;2023-04-24T07:20:34;11.00;99.90
5930;DHT22;2990;48.746;9.236;2023-04-24T07:23:00;11.10;99.90
5930;DHT22;2990;48.746;9.236;2023-04-24T07:25:26;11.00;1.00
5930;DHT22;2990;48.746;9.236;2023-04-24T07:27:52;10.90;99.90
5930;DHT22;2990;48.746;9.236;2023-04-24T07:30:18;10.60;1.00
5930;DHT22;2990;48.746;9.236;2023-04-24T07:32:43;10.20;1.00
5930;DHT22;2990;48.746;9.236;2023-04-24T07:35:09;9.90;40.50
5930;DHT22;2990;48.746;9.236;2023-04-24T07:37:35;9.80;99.90
5930;DHT22;2990;48.746;9.236;2023-04-24T07:40:01;9.80;99.90
5930;DHT22;2990;48.746;9.236;2023-04-24T07:42:27;9.80;1.00
5930;DHT22;2990;48.746;9.236;2023-04-24T07:44:53;9.90;99.90
5930;DHT22;2990;48.746;9.236;2023-04-24T07:47:19;10.10;99.90
5930;DHT22;2990;48.746;9.236;2023-04-24T07:49:44;10.30;1.00
5930;DHT22;2990;48.746;9.236;2023-04-24T07:52:10;10.70;1.00
5930;DHT22;2990;48.746;9.236;2023-04-24T07:54:35;10.90;99.90
5930;DHT22;2990;48.746;9.236;2023-04-24T07:57:02;11.10;1.00
5930;DHT22;2990;48.746;9.236;2023-04-24T07:59:28;11.10;1.00
5930;DHT22;2990;48.746;9.236;2023-04-24T08:01:54;11.10;1.00
5930;DHT22;2990;48.746;9.236;2023-04-24T08:04:19;10.90;1.00
5930;DHT22;2990;48.746;9.236;2023-04-24T08:06:47;11.00;99.90
5930;DHT22;2990;48.746;9.236;2023-04-24T08:09:13;10.70;99.90
5930;DHT22;2990;48.746;9.236;2023-04-24T08:11:38;10.60;99.90
5930;DHT22;2990;48.746;9.236;2023-04-24T08:14:04;10.50;99.90
5930;DHT22;2990;48.746;9.236;2023-04-24T08:16:30;10.40;31.30
5930;DHT22;2990;48.746;9.236;2023-04-24T08:18:57;10.40;34.60
5930;DHT22;2990;48.746;9.236;2023-04-24T08:21:23;10.30;1.00
5930;DHT22;2990;48.746;9.236;2023-04-24T08:23:48;10.20;1.00
5930;DHT22;2990;48.746;9.236;2023-04-24T08:26:14;10.20;1.00
5930;DHT22;2990;48.746;9.236;2023-04-24T08:28:40;10.30;1.00
5930;DHT22;2990;48.746;9.236;2023-04-24T08:31:05;10.30;1.00
5930;DHT22;2990;48.746;9.236;2023-04-24T08:33:31;10.50;1.00
5930;DHT22;2990;48.746;9.236;2023-04-24T08:36:04;10.90;1.00
5930;DHT22;2990;48.746;9.236;2023-04-24T08:38:29;11.30;1.00
5930;DHT22;2990;48.746;9.236;2023-04-24T08:40:57;11.60;1.00
5930;DHT22;2990;48.746;9.236;2023-04-24T08:43:23;11.80;1.00
5930;DHT22;2990;48.746;9.236;2023-04-24T08:45:50;11.80;99.90
5930;DHT22;2990;48.746;9.236;2023-04-24T08:48:17;12.00;99.90
5930;DHT22;2990;48.746;9.236;2023-04-24T08:50:43;12.20;99.90
5930;DHT22;2990;48.746;9.236;2023-04-24T08:53:10;12.30;99.90
5930;DHT22;2990;48.746;9.236;2023-04-24T08:55:36;12.30;99.90
5930;DHT22;2990;48.746;9.236;2023-04-24T08:58:02;12.20;99.90
5930;DHT22;2990;48.746;9.236;2023-04-24T09:00:29;12.20;99.90
5930;DHT22;2990;48.746;9.236;2023-04-24T09:02:55;12.40;99.90
5930;DHT22;2990;48.746;9.236;2023-04-24T09:05:22;12.50;99.90
5930;DHT22;2990;48.746;9.236;2023-04-24T09:07:56;12.90;99.90
5930;DHT22;2990;48.746;9.236;2023-04-24T09:10:24;13.30;99.90
5930;DHT22;2990;48.746;9.236;2023-04-24T09:12:51;13.30;99.90
5930;DHT22;2990;48.746;9.236;2023-04-24T09:15:18;13.40;99.90
5930;DHT22;2990;48.746;9.236;2023-04-24T09:17:43;13.60;99.90
5930;DHT22;2990;48.746;9.236;2023-04-24T09:20:10;13.40;99.90
5930;DHT22;2990;48.746;9.236;2023-04-24T09:22:36;13.40;99.90
5930;DHT22;2990;48.746;9.236;2023-04-24T09:25:06;13.10;99.90
5930;DHT22;2990;48.746;9.236;2023-04-24T09:27:33;12.70;99.90
5930;DHT22;2990;48.746;9.236;2023-04-24T09:30:00;12.50;99.90
5930;DHT22;2990;48.746;9.236;2023-04-24T09:32:26;12.40;99.90
5930;DHT22;2990;48.746;9.236;2023-04-24T09:37:41;12.10;99.90
5930;DHT22;2990;48.746;9.236;2023-04-24T09:40:16;12.00;99.90
5930;DHT22;2990;48.746;9.236;2023-04-24T09:42:53;12.20;99.90
5930;DHT22;2990;48.746;9.236;2023-04-24T09:45:20;12.40;99.90
5930;DHT22;2990;48.746;9.236;2023-04-24T09:47:45;12.40;99.90
5930;DHT22;2990;48.746;9.236;2023-04-24T09:50:15;12.90;99.90
5930;DHT22;2990;48.746;9.236;2023-04-24T09:53:06;13.40;99.90
5930;DHT22;2990;48.746;9.236;2023-04-24T09:55:31;14.00;99.90
5930;DHT22;2990;48.746;9.236;2023-04-24T09:58:01;14.40;99.90
5930;DHT22;2990;48.746;9.236;2023-04-24T10:00:28;13.90;99.90
5930;DHT22;2990;48.746;9.236;2023-04-24T10:02:55;13.50;99.90
5930;DHT22;2990;48.746;9.236;2023-04-24T10:05:30;13.00;99.90
5930;DHT22;2990;48.746;9.236;2023-04-24T10:08:01;12.50;99.90
5930;DHT22;2990;48.746;9.236;2023-04-24T10:10:27;12.30;99.90
5930;DHT22;2990;48.746;9.236;2023-04-24T10:12:53;12.10;99.90
5930;DHT22;2990;48.746;9.236;2023-04-24T10:15:20;12.00;99.90
5930;DHT22;2990;48.746;9.236;2023-04-24T10:17:50;12.00;99.90
5930;DHT22;2990;48.746;9.236;2023-04-24T10:20:24;11.90;99.90
5930;DHT22;2990;48.746;9.236;2023-04-24T10:22:52;12.20;99.90
5930;DHT22;2990;48.746;9.236;2023-04-24T10:25:22;12.70;99.90
5930;DHT22;2990;48.746;9.236;2023-04-24T10:27:50;12.70;99.90
5930;DHT22;2990;48.746;9.236;2023-04-24T10:30:16;12.80;99.90
5930;DHT22;2990;48.746;9.236;2023-04-24T10:32:42;13.10;99.90
5930;DHT22;2990;48.746;9.236;2023-04-24T10:35:10;13.30;99.90
5930;DHT22;2990;48.746;9.236;2023-04-24T10:38:05;13.60;99.90
5930;DHT22;2990;48.746;9.236;2023-04-24T10:40:32;13.60;99.90
5930;DHT22;2990;48.746;9.236;2023-04-24T10:42:59;13.30;99.90
5930;DHT22;2990;48.746;9.236;2023-04-24T10:45:25;13.20;99.90
5930;DHT22;2990;48.746;9.236;2023-04-24T10:48:11;13.10;99.90
5930;DHT22;2990;48.746;9.236;2023-04-24T10:50:46;12.90;99.90
5930;DHT22;2990;48.746;9.236;2023-04-24T10:53:18;12.60;99.90
5930;DHT22;2990;48.746;9.236;2023-04-24T10:55:59;12.40;99.90
5930;DHT22;2990;48.746;9.236;2023-04-24T10:58:42;12.10;99.90
5930;DHT22;2990;48.746;9.236;2023-04-24T11:01:38;12.00;99.90
5930;DHT22;2990;48.746;9.236;2023-04-24T11:04:03;11.80;99.90
5930;DHT22;2990;48.746;9.236;2023-04-24T11:06:34;11.70;99.90
5930;DHT22;2990;48.746;9.236;2023-04-24T11:09:04;11.60;99.90
5930;DHT22;2990;48.746;9.236;2023-04-24T11:11:31;11.50;99.90
5930;DHT22;2990;48.746;9.236;2023-04-24T11:16:27;11.30;99.90
5930;DHT22;2990;48.746;9.236;2023-04-24T11:21:32;11.00;99.90
5930;DHT22;2990;48.746;9.236;2023-04-24T11:26:48;10.90;99.90
5930;DHT22;2990;48.746;9.236;2023-04-24T11:29:13;11.00;99.90
5930;DHT22;2990;48.746;9.236;2023-04-24T11:31:40;11.10;99.90
5930;DHT22;2990;48.746;9.236;2023-04-24T11:34:11;11.20;99.90
5930;DHT22;2990;48.746;9.236;2023-04-24T11:36:38;11.30;99.90
5930;DHT22;2990;48.746;9.236;2023-04-24T11:39:05;11.50;99.90
5930;DHT22;2990;48.746;9.236;2023-04-24T11:41:33;11.80;99.90
5930;DHT22;2990;48.746;9.236;2023-04-24T11:43:58;11.80;99.90
5930;DHT22;2990;48.746;9.236;2023-04-24T11:46:28;11.90;99.90
5930;DHT22;2990;48.746;9.236;2023-04-24T11:48:54;11.90;99.90
5930;DHT22;2990;48.746;9.236;2023-04-24T11:51:19;11.90;99.90
5930;DHT22;2990;48.746;9.236;2023-04-24T11:53:45;11.80;99.90
5930;DHT22;2990;48.746;9.236;2023-04-24T11:56:10;11.40;99.90
5930;DHT22;2990;48.746;9.236;2023-04-24T11:58:38;11.20;99.90
5930;DHT22;2990;48.746;9.236;2023-04-24T12:01:04;11.00;99.90
5930;DHT22;2990;48.746;9.236;2023-04-24T12:03:30;11.10;99.90
5930;DHT22;2990;48.746;9.236;2023-04-24T12:06:10;11.30;99.90
5930;DHT22;2990;48.746;9.236;2023-04-24T12:08:37;11.40;99.90
5930;DHT22;2990;48.746;9.236;2023-04-24T12:11:04;11.80;99.90
5930;DHT22;2990;48.746;9.236;2023-04-24T12:13:30;12.20;99.90
5930;DHT22;2990;48.746;9.236;2023-04-24T12:16:01;12.40;99.90
5930;DHT22;2990;48.746;9.236;2023-04-24T12:18:27;12.40;99.90
5930;DHT22;2990;48.746;9.236;2023-04-24T12:20:52;12.30;99.90
5930;DHT22;2990;48.746;9.236;2023-04-24T12:23:34;12.10;99.90
5930;DHT22;2990;48.746;9.236;2023-04-24T12:26:03;11.80;99.90
5930;DHT22;2990;48.746;9.236;2023-04-24T12:28:35;11.60;99.90
5930;DHT22;2990;48.746;9.236;2023-04-24T12:31:01;11.50;99.90
5930;DHT22;2990;48.746;9.236;2023-04-24T12:33:27;11.40;99.90
5930;DHT22;2990;48.746;9.236;2023-04-24T12:35:53;11.30;99.90
5930;DHT22;2990;48.746;9.236;2023-04-24T12:38:23;11.30;99.90
5930;DHT22;2990;48.746;9.236;2023-04-24T12:41:02;11.40;99.90
5930;DHT22;2990;48.746;9.236;2023-04-24T12:43:28;11.60;99.90
5930;DHT22;2990;48.746;9.236;2023-04-24T12:45:53;11.60;99.90
5930;DHT22;2990;48.746;9.236;2023-04-24T12:48:19;11.80;99.90
5930;DHT22;2990;48.746;9.236;2023-04-24T12:50:45;12.00;99.90
5930;DHT22;2990;48.746;9.236;2023-04-24T12:53:11;12.10;99.90
5930;DHT22;2990;48.746;9.236;2023-04-24T12:55:37;12.10;99.90
5930;DHT22;2990;48.746;9.236;2023-04-24T12:58:02;12.10;99.90
5930;DHT22;2990;48.746;9.236;2023-04-24T13:00:28;11.90;99.90
5930;DHT22;2990;48.746;9.236;2023-04-24T13:02:54;11.60;99.90
5930;DHT22;2990;48.746;9.236;2023-04-24T13:05:20;11.40;99.90
5930;DHT22;2990;48.746;9.236;2023-04-24T13:07:45;11.20;99.90
5930;DHT22;2990;48.746;9.236;2023-04-24T13:10:11;11.00;99.90
5930;DHT22;2990;48.746;9.236;2023-04-24T13:12:38;10.90;99.90
5930;DHT22;2990;48.746;9.236;2023-04-24T13:15:05;10.70;99.90
5930;DHT22;2990;48.746;9.236;2023-04-24T13:17:30;10.70;99.90
5930;DHT22;2990;48.746;9.236;2023-04-24T13:19:56;10.60;99.90
5930;DHT22;2990;48.746;9.236;2023-04-24T13:22:22;10.50;99.90
5930;DHT22;2990;48.746;9.236;2023-04-24T13:24:47;10.50;1.00
5930;DHT22;2990;48.746;9.236;2023-04-24T13:27:15;10.50;1.00
5930;DHT22;2990;48.746;9.236;2023-04-24T13:29:41;10.80;1.00
5930;DHT22;2990;48.746;9.236;2023-04-24T13:32:07;11.10;1.00
5930;DHT22;2990;48.746;9.236;2023-04-24T13:34:33;11.30;1.00
5930;DHT22;2990;48.746;9.236;2023-04-24T13:37:00;11.60;1.00
5930;DHT22;2990;48.746;9.236;2023-04-24T13:39:25;11.90;1.00
5930;DHT22;2990;48.746;9.236;2023-04-24T13:41:51;12.00;1.00
5930;DHT22;2990;48.746;9.236;2023-04-24T13:44:18;11.90;99.90
5930;DHT22;2990;48.746;9.236;2023-04-24T13:46:46;11.70;99.90
5930;DHT22;2990;48.746;9.236;2023-04-24T13:49:13;11.50;99.90
5930;DHT22;2990;48.746;9.236;2023-04-24T13:51:39;11.30;99.90
5930;DHT22;2990;48.746;9.236;2023-04-24T13:54:05;11.10;99.90
5930;DHT22;2990;48.746;9.236;2023-04-24T13:56:31;10.80;1.00
5930;DHT22;2990;48.746;9.236;2023-04-24T13:58:56;10.60;1.00
5930;DHT22;2990;48.746;9.236;2023-04-24T14:01:22;10.50;1.00
5930;DHT22;2990;48.746;9.236;2023-04-24T14:03:52;10.40;99.90
5930;DHT22;2990;48.746;9.236;2023-04-24T14:06:21;10.30;1.00
5930;DHT22;2990;48.746;9.236;2023-04-24T14:08:47;10.20;1.00
5930;DHT22;2990;48.746;9.236;2023-04-24T14:11:13;10.20;1.00
5930;DHT22;2990;48.746;9.236;2023-04-24T14:13:41;10.50;1.00
5930;DHT22;2990;48.746;9.236;2023-04-24T14:16:07;11.10;99.90
5930;DHT22;2990;48.746;9.236;2023-04-24T14:18:33;11.40;1.00
5930;DHT22;2990;48.746;9.236;2023-04-24T14:20:59;11.60;99.90
5930;DHT22;2990;48.746;9.236;2023-04-24T14:23:26;11.70;99.90
5930;DHT22;2990;48.746;9.236;2023-04-24T14:25:52;11.60;1.00
5930;DHT22;2990;48.746;9.236;2023-04-24T14:28:18;11.30;1.00
5930;DHT22;2990;48.746;9.236;2023-04-24T14:30:45;11.10;99.90
5930;DHT22;2990;48.746;9.236;2023-04-24T14:33:11;10.80;99.90
5930;DHT22;2990;48.746;9.236;2023-04-24T14:35:38;10.40;99.90
5930;DHT22;2990;48.746;9.236;2023-04-24T14:38:03;10.10;99.90
5930;DHT22;2990;48.746;9.236;2023-04-24T14:40:29;9.80;1.00
5930;DHT22;2990;48.746;9.236;2023-04-24T14:42:56;10.10;1.00
5930;DHT22;2990;48.746;9.236;2023-04-24T14:45:23;10.40;99.90
5930;DHT22;2990;48.746;9.236;2023-04-24T14:47:48;10.70;49.10
5930;DHT22;2990;48.746;9.236;2023-04-24T14:50:14;11.10;99.90
5930;DHT22;2990;48.746;9.236;2023-04-24T14:52:40;11.50;1.00
5930;DHT22;2990;48.746;9.236;2023-04-24T14:55:06;11.70;1.00
5930;DHT22;2990;48.746;9.236;2023-04-24T14:57:32;11.80;1.00
5930;DHT22;2990;48.746;9.236;2023-04-24T15:00:03;11.80;99.90
5930;DHT22;2990;48.746;9.236;2023-04-24T15:03:00;12.00;99.90
5930;DHT22;2990;48.746;9.236;2023-04-24T15:05:26;11.90;99.30
5930;DHT22;2990;48.746;9.236;2023-04-24T15:07:52;12.10;99.90
5930;DHT22;2990;48.746;9.236;2023-04-24T15:10:17;12.60;1.00
5930;DHT22;2990;48.746;9.236;2023-04-24T15:12:46;12.80;1.00
5930;DHT22;2990;48.746;9.236;2023-04-24T15:15:12;12.80;1.00
5930;DHT22;2990;48.746;9.236;2023-04-24T15:17:37;12.50;1.00
5930;DHT22;2990;48.746;9.236;2023-04-24T15:20:03;12.10;1.00
5930;DHT22;2990;48.746;9.236;2023-04-24T15:22:31;11.80;1.00
5930;DHT22;2990;48.746;9.236;2023-04-24T15:24:57;11.60;1.00
5930;DHT22;2990;48.746;9.236;2023-04-24T15:27:23;11.40;1.00
5930;DHT22;2990;48.746;9.236;2023-04-24T15:29:48;11.30;1.00
5930;DHT22;2990;48.746;9.236;2023-04-24T15:32:14;11.20;1.00
5930;DHT22;2990;48.746;9.236;2023-04-24T15:34:39;11.10;1.00
5930;DHT22;2990;48.746;9.236;2023-04-24T15:37:05;11.10;1.00
5930;DHT22;2990;48.746;9.236;2023-04-24T15:39:31;11.00;1.00
5930;DHT22;2990;48.746;9.236;2023-04-24T15:41:56;11.00;1.00
5930;DHT22;2990;48.746;9.236;2023-04-24T15:44:22;11.00;1.00
5930;DHT22;2990;48.746;9.236;2023-04-24T15:46:48;10.90;1.00
5930;DHT22;2990;48.746;9.236;2023-04-24T15:49:13;10.80;1.00
5930;DHT22;2990;48.746;9.236;2023-04-24T15:51:39;10.70;1.00
5930;DHT22;2990;48.746;9.236;2023-04-24T15:54:05;10.70;1.00
5930;DHT22;2990;48.746;9.236;2023-04-24T15:56:32;10.70;1.00
5930;DHT22;2990;48.746;9.236;2023-04-24T15:58:58;10.60;1.00
5930;DHT22;2990;48.746;9.236;2023-04-24T16:01:25;10.50;99.90
5930;DHT22;2990;48.746;9.236;2023-04-24T16:03:50;10.40;1.00
5930;DHT22;2990;48.746;9.236;2023-04-24T16:06:16;10.20;99.90
5930;DHT22;2990;48.746;9.236;2023-04-24T16:08:41;10.20;99.90
5930;DHT22;2990;48.746;9.236;2023-04-24T16:11:07;10.70;1.00
5930;DHT22;2990;48.746;9.236;2023-04-24T16:13:33;11.90;24.90
5930;DHT22;2990;48.746;9.236;2023-04-24T16:15:58;13.80;1.00
5930;DHT22;2990;48.746;9.236;2023-04-24T16:18:24;15.20;99.90
5930;DHT22;2990;48.746;9.236;2023-04-24T16:20:50;16.70;99.90